Lakeland, FL

7:21 AM EST on March 03, 2015 (GMT -0500)
Cleveland Heights | Change Station
CLOSE
Current Station
Personal Weather Station
Location: Lakeland, FL
Elevation: 145 ft
Nearby Weather Stations
Active Advisory: Dense Fog Advisory

Elev 145 ft 28.01 °N, 81.95 °W | Updated 3 minutes ago

Fog
Fog
64.4 °F
Feels Like 64.4 °F
N
0.0
Wind Variable Wind from ESE

Today
High -- | Low -- °F
--% Chance of Precip.
Yesterday
High -- | Low -- °F
Precip. -- in
6:50 AM 6:29 PM
Waxing Gibbous, 96% visible
Pressure 30.22 in
Visibility 0.2 miles
Clouds Overcast 200 ft
Dew Point 64 °F
Humidity 99%
Rainfall 0.00 in
Snow Depth Not available.
UV 0 out of 12
Pollen 9.20 out of 12
Air Quality Not available.
Flu Activity Not available.
METAR KLAL 031150Z 00000KT 1/4SM FG OVC002 17/17 A3022

More Conditions Fewer Conditions

Pressure 30.22 in
Visibility 0.2 miles
Clouds Overcast 200 ft
Dew Point 64 °F
Humidity 99%
Rainfall 0.00 in
Snow Depth Not available.
UV 0 out of 12
Pollen 9.20 out of 12
Air Quality Not available.
Flu Activity Not available.
METAR KLAL 031150Z 00000KT 1/4SM FG OVC002 17/17 A3022

More Conditions Fewer Conditions

10-Day Weather Forecast

Almanac

Astronomy

Mar. 03, 2015 Rise Set
Actual Time
Civil Twilight
Nautical Twilight
Astronomical Twilight
Moon
Length of Visible Light
Length of Day
Tomorrow will be .
, % of the Moon is Illuminated

Today's Extremes

State Highs State Lows

Community

WunderPhotos

Upload Photos

1,802,095 photos uploaded!

WunderBlogs® & News

Nearby

Air Quality

  Air Quality AQ Index Pollutant
Not available.

Snow Depth

Station Depth Elevation

Earthquake Activity

City Distance Mag. Time & Date
Minimum magnitude displayed is 2.5.

Coastal Water Temperatures

Place Temperature

Nearby Weather Stations

Dense Fog Advisory
Statement as of 6:29 AM EST on March 03, 2015

... Dense fog advisory remains in effect until 9 am EST this
morning...

* visibility... areas of 1 mile but frequently down to 1/4 mile.

* Impacts... low visibility will result in dangerous driving
conditions.

Precautionary/preparedness actions...

Conditions will slowly improve after sunrise... however drivers
should take extra caution with the morning commute... be prepared
for rapidly changing visibility on the roadways... allow extra
time to reach their destination... slow down... use low beam
headlights... and maintain a safe distance between vehicles.